Time;durP1;ratioP1;P1;durP2;ratioP2;P2;SDS_P1;SDS_P2;PMS_P1;PMS_P2;Temp;Humidity;BMP_temperature;BMP_pressure;BME280_temperature;BME280_humidity;BME280_pressure;Samples;Min_cycle;Max_cycle;Signal;HPM_P1;HPM_P2
2023/03/09 00:01:50;;;;;;;16.55;8.27;;;;;;;4.66;62.33;99036.41;4884198;28;114125;-71
2023/03/09 00:04:17;;;;;;;19.95;8.25;;;;;;;4.67;62.38;99039.88;4884119;28;124053;-71
2023/03/09 00:06:45;;;;;;;17.35;8.50;;;;;;;4.67;62.60;99039.88;4887421;28;123271;-71
2023/03/09 00:09:13;;;;;;;16.42;7.82;;;;;;;4.67;62.53;99034.63;4888639;28;114070;-71
2023/03/09 00:11:42;;;;;;;21.83;9.35;;;;;;;4.66;62.49;99040.81;4882177;28;114170;-71
2023/03/09 00:14:09;;;;;;;19.20;8.27;;;;;;;4.68;62.55;99031.09;4894808;28;124422;-71
2023/03/09 00:16:38;;;;;;;15.52;8.27;;;;;;;4.68;62.29;99036.34;4883805;28;123908;-70
2023/03/09 00:19:05;;;;;;;19.38;8.43;;;;;;;4.69;62.29;99040.66;4885231;28;114828;-71
2023/03/09 00:21:40;;;;;;;17.38;8.15;;;;;;;4.69;62.52;99027.56;4883070;28;113759;-70
2023/03/09 00:24:08;;;;;;;18.50;8.77;;;;;;;4.69;62.40;99011.81;4890693;28;122971;-71
2023/03/09 00:26:38;;;;;;;20.77;9.35;;;;;;;4.69;62.33;99011.81;4879450;28;124072;-71
2023/03/09 00:29:08;;;;;;;19.10;9.27;;;;;;;4.67;62.46;99014.53;4881460;28;114500;-71
2023/03/09 00:31:35;;;;;;;17.50;8.40;;;;;;;4.65;62.26;99015.50;4879816;28;114566;-70
2023/03/09 00:34:04;;;;;;;18.13;8.10;;;;;;;4.64;62.56;99037.41;4885179;28;124552;-71
2023/03/09 00:36:31;;;;;;;19.33;8.45;;;;;;;4.65;62.26;99036.47;4873834;28;123901;-69
2023/03/09 00:38:59;;;;;;;18.35;8.65;;;;;;;4.64;62.54;99040.03;4880410;28;115342;-69
2023/03/09 00:41:30;;;;;;;18.58;8.45;;;;;;;4.65;62.56;99041.72;4888101;28;115007;-69
2023/03/09 00:44:01;;;;;;;18.23;8.65;;;;;;;4.67;62.62;99030.25;4879587;28;124161;-69
2023/03/09 00:46:30;;;;;;;19.73;8.98;;;;;;;4.67;62.42;99039.88;4881010;28;124994;-71
2023/03/09 00:49:02;;;;;;;19.63;9.32;;;;;;;4.68;62.61;99052.06;4880495;28;114832;-71
2023/03/09 00:51:29;;;;;;;18.65;8.70;;;;;;;4.69;62.46;99056.41;4886047;28;114099;-71
2023/03/09 00:53:56;;;;;;;17.88;8.77;;;;;;;4.69;62.43;99069.50;4883775;28;123410;-70
2023/03/09 00:56:26;;;;;;;17.45;8.35;;;;;;;4.69;62.37;99074.75;4874344;28;123536;-70
2023/03/09 00:58:54;;;;;;;17.33;8.60;;;;;;;4.72;62.46;99085.06;4866276;28;113462;-70
2023/03/09 01:01:22;;;;;;;19.30;8.60;;;;;;;4.74;62.40;99077.97;4887814;28;112436;-70
2023/03/09 01:03:50;;;;;;;17.77;8.23;;;;;;;4.75;62.43;99079.69;4880039;28;123796;-71
2023/03/09 01:06:17;;;;;;;17.95;8.60;;;;;;;4.76;62.33;99070.88;4886885;28;124155;-71
2023/03/09 01:08:45;;;;;;;19.10;9.07;;;;;;;4.77;62.50;99072.59;4863807;28;114400;-71
2023/03/09 01:11:15;;;;;;;17.52;8.95;;;;;;;4.76;62.14;99073.50;4868913;28;112975;-71
2023/03/09 01:13:42;;;;;;;20.55;8.75;;;;;;;4.77;62.23;99088.31;4879100;28;124183;-70
2023/03/09 01:16:10;;;;;;;20.02;9.38;;;;;;;4.76;62.55;99086.63;4880802;28;124331;-70
2023/03/09 01:18:38;;;;;;;18.95;9.27;;;;;;;4.76;62.45;99086.63;4886438;28;114224;-70
2023/03/09 01:21:06;;;;;;;19.42;9.55;;;;;;;4.78;62.56;99100.50;4883243;28;114364;-70
2023/03/09 01:23:35;;;;;;;19.02;9.25;;;;;;;4.78;62.47;99108.38;4887631;28;123662;-71
2023/03/09 01:26:03;;;;;;;17.45;9.10;;;;;;;4.78;62.49;99110.16;4878492;28;124160;-70
2023/03/09 01:28:31;;;;;;;19.63;9.38;;;;;;;4.76;62.46;99104.97;4883279;28;114296;-70
2023/03/09 01:30:58;;;;;;;22.00;10.48;;;;;;;4.78;62.35;99116.22;4872676;28;114442;-70
2023/03/09 01:33:25;;;;;;;21.90;9.80;;;;;;;4.77;62.27;99130.28;4878223;28;124510;-70
2023/03/09 01:35:52;;;;;;;19.77;9.43;;;;;;;4.78;62.39;99124.09;4887708;28;125167;-71
2023/03/09 01:38:19;;;;;;;25.02;10.18;;;;;;;4.78;62.26;99118.84;4882635;28;114078;-70
2023/03/09 01:40:47;;;;;;;22.77;10.15;;;;;;;4.79;62.51;99125.81;4871538;28;112967;-71
2023/03/09 01:43:28;;;;;;;23.08;10.45;;;;;;;4.79;62.52;99120.56;4883495;28;124173;-71
2023/03/09 01:46:20;;;;;;;23.02;10.23;;;;;;;4.77;62.33;99114.56;4882112;28;124003;-71
2023/03/09 01:48:50;;;;;;;24.02;10.15;;;;;;;4.77;62.54;99125.03;4876661;28;114662;-70
2023/03/09 01:51:19;;;;;;;24.80;10.77;;;;;;;4.78;62.67;99129.34;4870571;28;112890;-70
2023/03/09 01:53:47;;;;;;;23.98;10.82;;;;;;;4.79;62.34;99117.94;4880675;28;123838;-70
2023/03/09 01:56:17;;;;;;;28.15;11.60;;;;;;;4.80;62.29;99131.91;4890889;28;124020;-71
2023/03/09 01:58:47;;;;;;;25.65;11.05;;;;;;;4.81;62.26;99141.47;4887435;28;114794;-71
2023/03/09 02:01:16;;;;;;;25.23;11.73;;;;;;;4.80;62.49;99135.41;4882397;28;114047;-70
2023/03/09 02:03:48;;;;;;;22.70;11.35;;;;;;;4.81;62.39;99131.00;4882874;28;123911;-70
2023/03/09 02:06:17;;;;;;;22.27;9.90;;;;;;;4.83;62.52;99150.97;4881781;28;123391;-70
2023/03/09 02:08:55;;;;;;;25.08;10.75;;;;;;;4.84;62.25;99157.91;4873287;28;113544;-70
2023/03/09 02:11:22;;;;;;;26.08;11.20;;;;;;;4.87;62.56;99156.91;4879827;28;114368;-70
2023/03/09 02:13:51;;;;;;;26.48;11.77;;;;;;;4.90;62.53;99161.16;4881314;28;123185;-70
2023/03/09 02:16:19;;;;;;;24.25;11.10;;;;;;;4.92;62.37;99167.19;4884501;28;123519;-70
2023/03/09 02:18:46;;;;;;;23.88;10.98;;;;;;;4.93;62.27;99182.00;4880281;28;115619;-70
2023/03/09 02:21:22;;;;;;;25.63;11.40;;;;;;;4.94;62.18;99181.09;4884086;28;115218;-70
2023/03/09 02:24:23;;;;;;;28.42;12.48;;;;;;;4.95;62.44;99169.66;4856357;28;123369;-71
2023/03/09 02:27:01;;;;;;;25.77;12.25;;;;;;;4.94;62.34;99178.47;4877920;28;124089;-70
2023/03/09 02:29:30;;;;;;;25.73;12.50;;;;;;;4.93;62.11;99171.50;4883750;28;113551;-70
2023/03/09 02:31:58;;;;;;;25.23;11.00;;;;;;;4.94;62.20;99175.84;4868045;28;113970;-70
2023/03/09 02:34:25;;;;;;;24.05;11.15;;;;;;;4.94;62.10;99175.84;4881143;28;123621;-70
2023/03/09 02:36:52;;;;;;;25.42;11.23;;;;;;;4.96;62.29;99182.69;4884308;28;123623;-70
2023/03/09 02:39:37;;;;;;;32.40;12.35;;;;;;;5.00;62.33;99199.13;4877917;28;113374;-70
2023/03/09 02:42:06;;;;;;;26.10;11.38;;;;;;;5.02;62.08;99202.53;4877207;28;113901;-71
2023/03/09 02:44:34;;;;;;;26.25;11.73;;;;;;;5.03;62.17;99220.84;4880113;28;124776;-71
2023/03/09 02:47:08;;;;;;;24.58;11.63;;;;;;;5.03;62.34;99222.63;4880930;28;124839;-70
2023/03/09 02:49:36;;;;;;;27.88;12.00;;;;;;;5.04;61.99;99226.91;4881022;28;113730;-70
2023/03/09 02:52:04;;;;;;;27.48;12.98;;;;;;;5.05;62.24;99229.47;4877415;28;112773;-71
2023/03/09 02:54:32;;;;;;;36.17;18.05;;;;;;;5.06;62.07;99217.19;4878975;28;123255;-71
2023/03/09 02:56:59;;;;;;;34.97;17.38;;;;;;;5.05;61.97;99197.16;4882542;28;123518;-70
2023/03/09 02:59:26;;;;;;;38.95;18.85;;;;;;;5.05;62.27;99203.25;4880776;28;114796;-70
2023/03/09 03:01:53;;;;;;;36.10;18.67;;;;;;;5.06;62.21;99217.19;4885013;28;113005;-70
2023/03/09 03:04:21;;;;;;;34.67;17.92;;;;;;;5.07;61.94;99221.53;4882858;28;123830;-70
2023/03/09 03:06:50;;;;;;;35.70;18.02;;;;;;;5.07;61.94;99211.03;4886653;28;123118;-70
2023/03/09 03:09:18;;;;;;;36.28;18.55;;;;;;;5.06;61.98;99219.81;4883575;28;114537;-70
2023/03/09 03:11:45;;;;;;;37.20;18.63;;;;;;;5.05;61.99;99218.13;4883592;28;115455;-70
2023/03/09 03:14:12;;;;;;;38.20;18.77;;;;;;;5.04;62.05;99221.66;4887514;28;124267;-70
2023/03/09 03:16:39;;;;;;;37.97;18.88;;;;;;;5.03;61.93;99225.25;4884829;28;123682;-69
2023/03/09 03:19:07;;;;;;;39.47;19.45;;;;;;;5.02;62.14;99228.78;4885279;28;113470;-70
2023/03/09 03:21:36;;;;;;;42.05;20.05;;;;;;;5.03;62.31;99225.25;4880602;28;113700;-70
2023/03/09 03:24:04;;;;;;;38.33;18.20;;;;;;;5.03;62.35;99227.88;4873188;28;123364;-71
2023/03/09 03:26:34;;;;;;;39.38;19.45;;;;;;;5.03;62.33;99240.97;4888239;28;123119;-70
2023/03/09 03:29:06;;;;;;;41.38;19.45;;;;;;;5.04;62.35;99242.66;4884315;28;115314;-70
2023/03/09 03:31:34;;;;;;;33.60;13.90;;;;;;;5.04;62.08;99247.91;4883231;28;114291;-71
2023/03/09 03:34:01;;;;;;;36.53;16.17;;;;;;;5.06;62.33;99261.81;4883438;28;123337;-70
2023/03/09 03:36:34;;;;;;;35.38;15.10;;;;;;;5.05;62.35;99260.13;4883642;28;124917;-70
2023/03/09 03:39:03;;;;;;;35.53;15.82;;;;;;;5.06;62.15;99259.19;4878127;28;113806;-70
2023/03/09 03:41:30;;;;;;;35.70;16.33;;;;;;;5.08;62.27;99254.72;4885140;28;113859;-70
2023/03/09 03:43:59;;;;;;;37.88;16.73;;;;;;;5.08;62.21;99252.09;4875380;28;123378;-70
2023/03/09 03:46:26;;;;;;;33.78;15.48;;;;;;;5.08;62.29;99259.97;4882854;28;122950;-70
2023/03/09 03:48:54;;;;;;;36.45;16.08;;;;;;;5.09;62.41;99256.41;4880160;28;113915;-70
2023/03/09 03:51:23;;;;;;;37.30;15.60;;;;;;;5.09;62.31;99274.78;4879926;28;113336;-70
2023/03/09 03:53:53;;;;;;;37.38;16.08;;;;;;;5.09;62.19;99287.06;4879852;28;124406;-70
2023/03/09 03:56:21;;;;;;;35.60;15.65;;;;;;;5.09;62.24;99297.56;4881345;28;122778;-70
2023/03/09 03:58:49;;;;;;;38.97;17.05;;;;;;;5.09;62.01;99308.91;4885368;28;117307;-70
2023/03/09 04:01:17;;;;;;;37.80;16.83;;;;;;;5.10;62.04;99294.00;4884410;28;114891;-70
2023/03/09 04:03:48;;;;;;;38.10;16.27;;;;;;;5.10;62.06;99284.34;4880476;28;123897;-70
2023/03/09 04:06:15;;;;;;;37.92;16.50;;;;;;;5.10;62.10;99294.00;4879941;28;123985;-70
2023/03/09 04:08:45;;;;;;;38.53;17.23;;;;;;;5.09;62.13;99303.66;4884561;28;112869;-70
2023/03/09 04:11:12;;;;;;;40.35;18.23;;;;;;;5.09;62.04;99303.66;4889085;28;114415;-70
2023/03/09 04:13:48;;;;;;;40.10;17.33;;;;;;;5.09;61.88;99319.41;4883057;28;123178;-70
2023/03/09 04:16:16;;;;;;;35.42;17.05;;;;;;;5.08;61.89;99317.69;4879591;28;122793;-70
2023/03/09 04:18:45;;;;;;;41.50;17.67;;;;;;;5.09;62.17;99319.41;4882237;28;112170;-70
2023/03/09 04:21:19;;;;;;;43.50;17.60;;;;;;;5.11;62.07;99320.16;4883452;28;113054;-70
2023/03/09 04:23:49;;;;;;;38.22;16.85;;;;;;;5.11;61.86;99317.56;4880391;28;124661;-71
2023/03/09 04:26:17;;;;;;;37.35;16.60;;;;;;;5.12;62.08;99316.59;4886087;28;123077;-71
2023/03/09 04:29:04;;;;;;;39.53;16.08;;;;;;;5.10;61.79;99326.34;4882019;28;114748;-71
2023/03/09 04:31:32;;;;;;;39.92;17.25;;;;;;;5.08;61.82;99338.69;4879861;28;114046;-70
2023/03/09 04:34:00;;;;;;;41.08;17.00;;;;;;;5.07;61.86;99337.00;4882430;28;124180;-70
2023/03/09 04:36:28;;;;;;;39.42;17.05;;;;;;;5.07;61.85;99339.63;4885093;28;122276;-71
2023/03/09 04:38:56;;;;;;;37.05;16.35;;;;;;;5.06;61.92;99346.63;4880902;28;113551;-70
2023/03/09 04:41:25;;;;;;;36.58;16.38;;;;;;;5.07;62.16;99350.94;4885429;28;113522;-70
2023/03/09 04:43:57;;;;;;;36.72;16.52;;;;;;;5.10;62.05;99347.31;4881717;28;123539;-70
2023/03/09 04:46:25;;;;;;;41.35;17.00;;;;;;;5.10;62.18;99357.81;4879749;28;124019;-70
2023/03/09 04:48:55;;;;;;;36.63;16.35;;;;;;;5.11;61.94;99364.78;4880086;28;114703;-70
2023/03/09 04:51:22;;;;;;;39.10;16.63;;;;;;;5.12;61.88;99366.47;4886348;28;115063;-70
2023/03/09 04:53:51;;;;;;;38.45;17.00;;;;;;;5.12;62.05;99361.22;4876883;28;123446;-70
2023/03/09 04:56:21;;;;;;;39.38;16.27;;;;;;;5.12;61.96;99366.47;4881775;28;122974;-70
2023/03/09 04:58:53;;;;;;;38.50;16.90;;;;;;;5.12;61.97;99366.47;4878169;28;113848;-70
2023/03/09 05:01:23;;;;;;;35.42;15.85;;;;;;;5.11;62.16;99370.03;4883751;28;113978;-70
2023/03/09 05:03:51;;;;;;;39.65;16.40;;;;;;;5.11;62.04;99369.19;4878996;28;124906;-70
2023/03/09 05:06:18;;;;;;;32.67;15.40;;;;;;;5.11;61.94;99375.28;4874565;28;123289;-70
2023/03/09 05:08:45;;;;;;;37.45;16.73;;;;;;;5.08;61.99;99380.66;4880749;28;113533;-71
2023/03/09 05:11:13;;;;;;;36.30;16.33;;;;;;;5.07;62.29;99384.22;4875403;28;113452;-70
2023/03/09 05:13:41;;;;;;;34.42;15.50;;;;;;;5.04;61.79;99390.44;4877740;28;123899;-70
2023/03/09 05:16:12;;;;;;;36.40;16.10;;;;;;;5.03;61.92;99393.16;4884495;28;123488;-71
2023/03/09 05:18:43;;;;;;;34.40;15.75;;;;;;;5.03;62.17;99393.16;4883808;28;113707;-70
2023/03/09 05:21:11;;;;;;;39.20;16.40;;;;;;;5.01;62.00;99400.22;4887589;28;113316;-70
2023/03/09 05:23:40;;;;;;;37.38;17.20;;;;;;;5.01;61.99;99401.09;4886634;28;121138;-70
2023/03/09 05:26:08;;;;;;;38.65;16.08;;;;;;;5.00;61.85;99401.16;4885922;28;124232;-70
2023/03/09 05:28:40;;;;;;;39.10;15.75;;;;;;;4.99;62.14;99408.19;4881437;28;113805;-70
2023/03/09 05:31:09;;;;;;;34.63;15.48;;;;;;;5.01;62.21;99411.59;4879025;28;113206;-70
2023/03/09 05:33:37;;;;;;;36.67;15.63;;;;;;;5.01;62.08;99418.59;4879786;28;122521;-70
2023/03/09 05:36:18;;;;;;;36.47;15.73;;;;;;;5.00;61.85;99414.28;4885256;28;123102;-71
2023/03/09 05:38:48;;;;;;;35.97;14.82;;;;;;;5.01;62.10;99400.22;4876964;28;114750;-70
2023/03/09 05:41:16;;;;;;;38.15;15.35;;;;;;;5.03;62.00;99408.91;4883272;28;114187;-70
2023/03/09 05:43:45;;;;;;;36.20;16.50;;;;;;;5.04;62.33;99394.84;4878605;28;123949;-70
2023/03/09 05:46:15;;;;;;;35.80;14.65;;;;;;;5.03;62.00;99388.75;4875227;28;124276;-71
2023/03/09 05:48:45;;;;;;;33.30;15.07;;;;;;;5.04;61.99;99389.59;4877616;28;114014;-70
2023/03/09 05:51:12;;;;;;;38.97;15.85;;;;;;;5.04;62.25;99389.59;4879354;28;113776;-70
2023/03/09 05:53:40;;;;;;;38.80;15.73;;;;;;;5.06;62.09;99393.84;4881393;28;123709;-70
2023/03/09 05:56:07;;;;;;;39.00;15.77;;;;;;;5.08;62.01;99391.16;4875657;28;123693;-70
2023/03/09 05:58:38;;;;;;;36.47;15.48;;;;;;;5.07;61.75;99397.34;4877488;28;114798;-70
2023/03/09 06:01:21;;;;;;;36.47;15.40;;;;;;;5.07;61.95;99410.47;4878153;28;113110;-70
2023/03/09 06:03:52;;;;;;;35.72;14.32;;;;;;;5.06;61.89;99403.50;4872827;28;123215;-70
2023/03/09 06:06:21;;;;;;;39.33;16.00;;;;;;;5.07;62.02;99405.22;4875166;28;123407;-70
2023/03/09 06:08:48;;;;;;;39.72;16.67;;;;;;;5.04;62.03;99400.09;4881560;28;113284;-70
2023/03/09 06:11:15;;;;;;;37.03;15.07;;;;;;;5.04;61.97;99405.34;4875275;28;114021;-70
2023/03/09 06:13:43;;;;;;;40.38;15.52;;;;;;;5.03;61.88;99420.25;4879136;28;123214;-70
2023/03/09 06:16:14;;;;;;;38.92;15.48;;;;;;;5.06;62.06;99434.97;4879852;28;123256;-70
2023/03/09 06:18:43;;;;;;;35.17;14.55;;;;;;;5.07;61.89;99431.47;4876317;28;113894;-70
2023/03/09 06:21:12;;;;;;;38.22;14.85;;;;;;;5.08;62.16;99435.75;4879640;28;113142;-70
2023/03/09 06:23:40;;;;;;;40.22;14.68;;;;;;;5.08;61.92;99448.88;4883267;28;123497;-71
2023/03/09 06:26:12;;;;;;;35.88;14.80;;;;;;;5.08;62.05;99459.38;4880310;28;124142;-69
2023/03/09 06:28:46;;;;;;;37.20;14.73;;;;;;;5.08;62.08;99464.63;4880287;28;113518;-70
2023/03/09 06:31:14;;;;;;;36.30;14.63;;;;;;;5.08;62.22;99469.88;4880885;28;115256;-70
2023/03/09 06:33:46;;;;;;;39.17;15.13;;;;;;;5.10;62.22;99468.03;4884697;28;123563;-70
2023/03/09 06:36:17;;;;;;;36.75;14.50;;;;;;;5.11;62.26;99467.13;4883805;28;122570;-70
2023/03/09 06:38:48;;;;;;;35.00;14.05;;;;;;;5.13;62.13;99467.91;4891146;28;115551;-70
2023/03/09 06:41:16;;;;;;;35.70;15.60;;;;;;;5.15;62.00;99466.06;4880347;28;113817;-70
2023/03/09 06:43:47;;;;;;;38.20;14.95;;;;;;;5.17;62.35;99479.97;4882928;28;125002;-70
2023/03/09 06:46:14;;;;;;;35.08;14.77;;;;;;;5.20;62.24;99495.59;4885038;28;124233;-70
2023/03/09 06:48:41;;;;;;;36.03;15.05;;;;;;;5.22;62.18;99499.00;4884885;28;115085;-70
2023/03/09 06:51:09;;;;;;;37.33;15.27;;;;;;;5.24;62.33;99507.66;4880223;28;112899;-70
2023/03/09 06:53:36;;;;;;;33.97;13.70;;;;;;;5.28;62.20;99508.38;4880842;28;123938;-70
2023/03/09 06:56:09;;;;;;;35.83;13.00;;;;;;;5.30;62.19;99505.69;4886550;28;122972;-70
2023/03/09 06:58:36;;;;;;;30.35;12.40;;;;;;;5.32;62.07;99498.59;4880881;28;113851;-70
2023/03/09 07:01:08;;;;;;;35.42;12.57;;;;;;;5.31;62.03;99505.59;4884955;28;113545;-70
2023/03/09 07:03:37;;;;;;;32.90;13.25;;;;;;;5.31;61.86;99502.13;4888662;28;123285;-70
2023/03/09 07:06:05;;;;;;;29.75;12.00;;;;;;;5.32;61.94;99514.34;4888069;28;123909;-70
2023/03/09 07:08:33;;;;;;;37.22;13.50;;;;;;;5.32;61.97;99522.22;4880525;28;114455;-70
2023/03/09 07:11:00;;;;;;;32.33;12.80;;;;;;;5.33;61.95;99543.16;4883453;28;114370;-70
2023/03/09 07:13:29;;;;;;;36.85;13.45;;;;;;;5.34;62.00;99550.09;4877951;28;126339;-70
2023/03/09 07:15:56;;;;;;;32.65;12.20;;;;;;;5.35;62.24;99554.44;4884155;28;123053;-70
2023/03/09 07:18:24;;;;;;;32.92;13.13;;;;;;;5.37;62.30;99560.47;4882781;28;115139;-70
2023/03/09 07:20:51;;;;;;;34.75;13.13;;;;;;;5.40;61.93;99559.47;4881807;28;115666;-70
2023/03/09 07:23:18;;;;;;;34.20;13.10;;;;;;;5.43;61.93;99569.84;4880840;28;123873;-70
2023/03/09 07:25:45;;;;;;;36.33;13.65;;;;;;;5.45;62.10;99568.00;4880687;28;124112;-70
2023/03/09 07:28:12;;;;;;;39.17;13.43;;;;;;;5.46;61.68;99574.94;4880408;28;113925;-70
2023/03/09 07:30:39;;;;;;;35.03;12.85;;;;;;;5.47;61.80;99592.41;4875769;28;113947;-70
2023/03/09 07:33:08;;;;;;;34.95;12.85;;;;;;;5.47;62.00;99597.66;4881214;28;124732;-70
2023/03/09 07:35:39;;;;;;;34.55;13.73;;;;;;;5.47;61.86;99592.41;4878430;28;124318;-70
2023/03/09 07:38:06;;;;;;;31.77;12.10;;;;;;;5.47;61.85;99597.66;4880416;28;114012;-71
2023/03/09 07:40:33;;;;;;;35.78;13.40;;;;;;;5.48;61.73;99609.84;4883051;28;114723;-70
2023/03/09 07:43:00;;;;;;;37.25;13.35;;;;;;;5.51;62.05;99609.72;4882156;28;124142;-70
2023/03/09 07:45:38;;;;;;;35.15;12.57;;;;;;;5.50;61.60;99623.81;4879804;28;123693;-71
2023/03/09 07:48:06;;;;;;;31.70;13.00;;;;;;;5.52;61.87;99626.34;4885658;28;114784;-70
2023/03/09 07:50:33;;;;;;;38.75;15.10;;;;;;;5.48;61.90;99628.25;4880532;28;113748;-71
2023/03/09 07:53:00;;;;;;;33.00;12.68;;;;;;;5.46;61.48;99622.19;4877314;28;123660;-71
2023/03/09 07:55:29;;;;;;;33.53;13.00;;;;;;;5.46;61.76;99619.56;4875811;28;123934;-71
2023/03/09 07:57:56;;;;;;;36.67;13.90;;;;;;;5.48;61.92;99615.09;4874641;28;113374;-71
2023/03/09 08:00:26;;;;;;;34.03;13.43;;;;;;;5.48;61.66;99625.63;4881556;28;115021;-71
2023/03/09 08:02:54;;;;;;;32.53;13.05;;;;;;;5.51;61.88;99630.75;4878441;28;124418;-71
2023/03/09 08:05:22;;;;;;;36.15;13.45;;;;;;;5.53;61.69;99631.53;4876924;28;124658;-71
2023/03/09 08:07:49;;;;;;;33.65;13.20;;;;;;;5.54;61.86;99624.50;4884509;28;115547;-71
2023/03/09 08:10:19;;;;;;;35.75;13.43;;;;;;;5.56;62.12;99634.03;4887540;28;115024;-71
2023/03/09 08:12:49;;;;;;;37.25;13.35;;;;;;;5.60;61.95;99625.09;4875990;28;124681;-71
2023/03/09 08:15:18;;;;;;;33.70;14.07;;;;;;;5.63;61.89;99624.97;4879820;28;123837;-71
2023/03/09 08:17:45;;;;;;;34.38;13.55;;;;;;;5.64;61.75;99637.16;4863266;28;111864;-71
2023/03/09 08:20:13;;;;;;;33.83;13.10;;;;;;;5.66;61.75;99650.22;4879127;28;114171;-72
2023/03/09 08:22:40;;;;;;;36.83;13.40;;;;;;;5.69;61.82;99665.00;4878226;28;125089;-70
2023/03/09 08:25:09;;;;;;;33.35;13.98;;;;;;;5.71;61.94;99657.91;4881106;28;124308;-71
2023/03/09 08:27:42;;;;;;;38.17;14.00;;;;;;;5.71;61.76;99645.63;4881831;28;114270;-71
2023/03/09 08:30:11;;;;;;;34.83;12.68;;;;;;;5.75;61.84;99638.47;4883960;28;113967;-71
2023/03/09 08:32:39;;;;;;;41.50;13.68;;;;;;;5.77;61.82;99647.97;4889289;28;124746;-71
2023/03/09 08:35:07;;;;;;;37.47;13.27;;;;;;;5.81;62.10;99648.69;4894893;28;123014;-71
2023/03/09 08:37:34;;;;;;;35.63;12.98;;;;;;;5.84;62.03;99664.34;4888161;28;114523;-71
2023/03/09 08:40:02;;;;;;;37.30;13.75;;;;;;;5.86;61.89;99678.25;4890823;28;113300;-71
2023/03/09 08:42:29;;;;;;;34.38;13.30;;;;;;;5.89;61.75;99691.25;4881375;28;124120;-71
2023/03/09 08:44:56;;;;;;;33.25;12.88;;;;;;;5.93;61.97;99700.69;4890379;28;124154;-71
2023/03/09 08:47:23;;;;;;;37.63;14.35;;;;;;;5.98;62.16;99688.25;4892891;28;114139;-71
2023/03/09 08:49:50;;;;;;;39.13;14.18;;;;;;;6.01;61.87;99693.38;4891638;28;114563;-71
2023/03/09 08:52:17;;;;;;;34.05;14.27;;;;;;;6.06;61.83;99700.19;4888383;28;123282;-71
2023/03/09 08:54:46;;;;;;;34.30;12.85;;;;;;;6.10;61.95;99707.00;4892410;28;123879;-71
2023/03/09 08:57:13;;;;;;;32.95;12.80;;;;;;;6.13;61.54;99694.59;4886733;28;115802;-71
2023/03/09 08:59:40;;;;;;;32.50;13.27;;;;;;;6.17;62.03;99692.66;4890586;28;115093;-71
2023/03/09 09:02:14;;;;;;;36.08;13.27;;;;;;;6.20;61.82;99689.91;4871492;28;124341;-71
2023/03/09 09:04:43;;;;;;;39.60;14.20;;;;;;;6.23;61.87;99692.38;4882833;28;124021;-71
2023/03/09 09:07:11;;;;;;;34.70;13.60;;;;;;;6.28;61.87;99689.56;4879303;28;113807;-71
2023/03/09 09:09:39;;;;;;;35.17;14.70;;;;;;;6.30;61.85;99683.28;4884037;28;114520;-71
2023/03/09 09:12:07;;;;;;;39.20;13.80;;;;;;;6.34;61.51;99694.53;4885444;28;124716;-71
2023/03/09 09:14:37;;;;;;;42.85;15.27;;;;;;;6.36;61.89;99704.03;4883593;28;124160;-71
2023/03/09 09:17:11;;;;;;;34.65;14.48;;;;;;;6.41;61.85;99712.59;4872306;28;114557;-71
2023/03/09 09:19:40;;;;;;;38.47;14.80;;;;;;;6.49;61.45;99699.06;4871897;28;114831;-71
2023/03/09 09:22:08;;;;;;;39.38;15.25;;;;;;;6.53;61.42;99707.69;4874923;28;123957;-71
2023/03/09 09:24:37;;;;;;;37.08;15.20;;;;;;;6.56;61.51;99712.81;4873686;28;123887;-71
2023/03/09 09:27:06;;;;;;;37.90;14.68;;;;;;;6.58;61.56;99713.59;4874162;28;113911;-71
2023/03/09 09:29:34;;;;;;;42.28;15.40;;;;;;;6.63;61.64;99727.38;4874303;28;114439;-71
2023/03/09 09:32:03;;;;;;;39.13;14.55;;;;;;;6.67;61.54;99734.19;4882556;28;123919;-71
2023/03/09 09:34:32;;;;;;;41.92;15.00;;;;;;;6.71;61.68;99743.66;4877733;28;124121;-71
2023/03/09 09:37:00;;;;;;;38.75;14.45;;;;;;;6.78;61.72;99742.44;4883781;28;114261;-71
2023/03/09 09:39:29;;;;;;;37.47;14.50;;;;;;;6.85;61.55;99752.69;4886857;28;114331;-71
2023/03/09 09:42:00;;;;;;;40.60;15.00;;;;;;;6.93;61.42;99737.34;4886356;28;124277;-72
2023/03/09 09:44:39;;;;;;;37.85;14.57;;;;;;;7.01;61.52;99737.88;4883943;28;123774;-71
2023/03/09 09:47:13;;;;;;;37.95;13.00;;;;;;;7.07;61.30;99742.81;4876381;28;115601;-71
2023/03/09 09:49:47;;;;;;;38.55;14.30;;;;;;;7.15;61.31;99738.03;4883180;28;115333;-71
2023/03/09 09:52:36;;;;;;;34.45;13.50;;;;;;;7.21;61.38;99737.75;4881039;28;124881;-70
2023/03/09 09:55:24;;;;;;;38.58;13.57;;;;;;;7.24;61.27;99733.25;4879463;28;123925;-71
2023/03/09 09:58:01;;;;;;;37.47;14.13;;;;;;;7.30;61.54;99727.69;4875675;28;114539;-72
2023/03/09 10:00:34;;;;;;;32.22;13.40;;;;;;;7.35;61.34;99730.94;4878198;28;115065;-71
2023/03/09 10:03:19;;;;;;;33.22;12.73;;;;;;;7.37;61.17;99734.34;4875575;28;123955;-71
2023/03/09 10:06:24;;;;;;;37.17;14.30;;;;;;;7.37;61.34;99739.63;4877800;28;123713;-71
2023/03/09 10:08:55;;;;;;;35.25;13.60;;;;;;;7.43;61.33;99754.28;4854447;28;113952;-71
2023/03/09 10:11:33;;;;;;;38.22;14.02;;;;;;;7.48;61.26;99768.03;4876040;28;113706;-70
2023/03/09 10:14:26;;;;;;;34.92;13.63;;;;;;;7.51;61.33;99774.03;4885946;28;124164;-71
2023/03/09 10:17:14;;;;;;;36.95;14.10;;;;;;;7.58;61.38;99785.13;4880424;28;123947;-71
2023/03/09 10:19:43;;;;;;;35.28;13.88;;;;;;;7.64;61.10;99768.16;4874337;28;114294;-71
2023/03/09 10:22:20;;;;;;;39.83;14.23;;;;;;;7.69;61.20;99761.72;4880062;28;114302;-71
2023/03/09 10:24:52;;;;;;;32.30;13.73;;;;;;;7.74;61.33;99764.09;4878954;28;124238;-71
2023/03/09 10:27:42;;;;;;;33.55;14.10;;;;;;;7.82;61.05;99767.22;4891425;28;123824;-71
2023/03/09 10:30:37;;;;;;;42.13;14.77;;;;;;;7.87;61.36;99770.47;4886618;28;113738;-71
2023/03/09 10:33:15;;;;;;;34.65;13.68;;;;;;;7.93;61.14;99780.72;4874149;28;114159;-71
2023/03/09 10:36:03;;;;;;;35.85;13.93;;;;;;;7.98;61.10;99778.66;4878583;28;123808;-74
2023/03/09 10:38:32;;;;;;;33.72;13.32;;;;;;;8.03;60.99;99761.78;4877963;28;123583;-71
2023/03/09 10:40:59;;;;;;;36.45;14.00;;;;;;;8.05;60.94;99770.47;4881631;28;115255;-71
2023/03/09 10:43:30;;;;;;;38.00;14.63;;;;;;;8.06;60.63;99764.25;4879987;28;115665;-71
2023/03/09 10:46:06;;;;;;;37.65;14.30;;;;;;;8.09;60.55;99758.81;4883525;28;122868;-71
2023/03/09 10:48:33;;;;;;;32.92;13.10;;;;;;;8.10;60.33;99761.38;4885559;28;123740;-71
2023/03/09 10:51:04;;;;;;;40.05;14.07;;;;;;;8.13;60.81;99755.94;4884944;28;114036;-71
2023/03/09 10:53:37;;;;;;;35.20;14.23;;;;;;;8.17;60.69;99756.63;4885245;28;114323;-71
2023/03/09 10:56:09;;;;;;;31.55;12.65;;;;;;;8.18;60.47;99763.63;4890257;28;121909;-71
2023/03/09 10:58:36;;;;;;;31.52;12.02;;;;;;;8.20;60.49;99756.47;4893210;28;124466;-71
2023/03/09 11:01:18;;;;;;;37.97;14.05;;;;;;;8.22;60.42;99765.16;4881002;28;113593;-71
2023/03/09 11:03:46;;;;;;;33.55;13.57;;;;;;;8.24;60.36;99763.28;4890142;28;113711;-70
2023/03/09 11:06:16;;;;;;;34.47;13.73;;;;;;;8.27;60.47;99762.25;4869923;28;123601;-71
2023/03/09 11:08:52;;;;;;;35.90;13.93;;;;;;;8.29;60.20;99766.53;4883154;28;124105;-71
2023/03/09 11:11:40;;;;;;;36.92;13.18;;;;;;;8.30;60.17;99767.38;4881540;28;114388;-71
2023/03/09 11:14:24;;;;;;;32.80;12.70;;;;;;;8.32;60.36;99766.34;4881575;28;114387;-71
2023/03/09 11:16:57;;;;;;;31.70;12.37;;;;;;;8.35;60.36;99771.47;4870627;28;124551;-70
2023/03/09 11:19:25;;;;;;;32.45;13.02;;;;;;;8.39;60.34;99770.38;4876560;28;125381;-71
2023/03/09 11:22:13;;;;;;;33.45;13.30;;;;;;;8.44;60.25;99770.19;4886546;28;115365;-71
2023/03/09 11:24:45;;;;;;;30.80;13.43;;;;;;;8.48;60.33;99765.59;4888693;28;113419;-71
2023/03/09 11:27:34;;;;;;;33.67;13.30;;;;;;;8.48;59.95;99765.59;4879160;28;123967;-72
2023/03/09 11:30:06;;;;;;;40.05;14.18;;;;;;;8.47;60.19;99763.88;4885714;28;124031;-72
2023/03/09 11:32:33;;;;;;;36.65;13.50;;;;;;;8.47;60.04;99763.88;4904018;28;114956;-71
2023/03/09 11:35:02;;;;;;;40.08;14.18;;;;;;;8.49;60.15;99767.28;4882581;28;115131;-72